Time;durP1;ratioP1;P1;durP2;ratioP2;P2;SDS_P1;SDS_P2;PMS_P1;PMS_P2;Temp;Humidity;BMP_temperature;BMP_pressure;BME280_temperature;BME280_humidity;BME280_pressure;Samples;Min_cycle;Max_cycle;Signal;HPM_P1;HPM_P2
2023/05/15 00:01:23;;;;;;;5.65;3.60;;;10.90;1.00;;;;;;5014227;28;20040;-78
2023/05/15 00:03:50;;;;;;;5.75;3.72;;;10.90;1.00;;;;;;5013873;28;20034;-78
2023/05/15 00:06:17;;;;;;;5.30;2.92;;;10.80;1.00;;;;;;5014214;28;20041;-78
2023/05/15 00:08:43;;;;;;;7.53;3.17;;;10.60;1.00;;;;;;5013982;28;20026;-77
2023/05/15 00:11:09;;;;;;;9.82;5.30;;;10.60;1.00;;;;;;5013234;28;20034;-78
2023/05/15 00:13:37;;;;;;;4.97;3.20;;;10.60;1.00;;;;;;5013171;28;20374;-79
2023/05/15 00:16:07;;;;;;;6.32;3.03;;;10.60;1.00;;;;;;5013321;28;20482;-79
2023/05/15 00:18:33;;;;;;;7.43;3.83;;;10.60;1.00;;;;;;5014131;28;20030;-79
2023/05/15 00:20:59;;;;;;;4.50;2.92;;;10.70;1.00;;;;;;5014045;28;20033;-78
2023/05/15 00:23:25;;;;;;;8.55;3.47;;;10.70;1.00;;;;;;5013211;28;20041;-81
2023/05/15 00:25:51;;;;;;;4.95;3.70;;;10.60;1.00;;;;;;5013581;28;20037;-81
2023/05/15 00:28:18;;;;;;;4.28;3.10;;;10.70;1.00;;;;;;5013735;28;20030;-78
2023/05/15 00:30:44;;;;;;;4.53;3.05;;;10.70;1.00;;;;;;5013593;28;20041;-78
2023/05/15 00:33:10;;;;;;;7.00;3.67;;;10.60;1.00;;;;;;5023299;28;20029;-82
2023/05/15 00:35:36;;;;;;;7.65;3.25;;;10.70;1.00;;;;;;5013606;28;20413;-78
2023/05/15 00:38:02;;;;;;;5.03;3.42;;;10.70;1.00;;;;;;5013103;28;20036;-78
2023/05/15 00:40:29;;;;;;;6.75;3.63;;;10.70;1.00;;;;;;5013947;28;20469;-78
2023/05/15 00:42:57;;;;;;;4.95;3.67;;;10.70;1.00;;;;;;5013124;28;20025;-83
2023/05/15 00:45:24;;;;;;;6.57;3.63;;;10.60;1.00;;;;;;5010984;28;20041;-78
2023/05/15 00:47:51;;;;;;;5.82;3.60;;;10.50;1.00;;;;;;5013328;28;20030;-78
2023/05/15 00:50:18;;;;;;;5.72;3.85;;;10.40;1.00;;;;;;5012691;28;20030;-78
2023/05/15 00:52:45;;;;;;;6.85;4.57;;;10.40;1.00;;;;;;5013192;28;20065;-78
2023/05/15 00:55:11;;;;;;;6.90;4.13;;;10.30;1.00;;;;;;5010766;28;20383;-78
2023/05/15 00:57:40;;;;;;;5.28;4.03;;;10.20;1.00;;;;;;5013345;28;20029;-78
2023/05/15 01:00:09;;;;;;;6.30;4.30;;;10.20;9.70;;;;;;5012565;28;20034;-78
2023/05/15 01:02:36;;;;;;;6.47;4.35;;;10.20;14.60;;;;;;5012684;28;20038;-79
2023/05/15 01:05:03;;;;;;;6.47;4.47;;;10.20;7.90;;;;;;5003850;28;20053;-79
2023/05/15 01:07:36;;;;;;;6.72;3.85;;;10.20;1.00;;;;;;5019459;28;20034;-77
2023/05/15 01:10:05;;;;;;;5.95;4.50;;;10.10;7.70;;;;;;5012528;28;20041;-78
2023/05/15 01:12:31;;;;;;;8.80;4.80;;;10.00;7.40;;;;;;5011643;28;20045;-78
2023/05/15 01:14:57;;;;;;;7.97;5.90;;;10.00;10.60;;;;;;5012024;28;20038;-82
2023/05/15 01:17:24;;;;;;;5.28;4.07;;;9.80;20.60;;;;;;5012821;28;20029;-78
2023/05/15 01:19:51;;;;;;;8.02;4.68;;;9.70;32.20;;;;;;5012795;28;20033;-78
2023/05/15 01:22:32;;;;;;;6.93;4.68;;;9.70;60.00;;;;;;5012428;28;20033;-77
2023/05/15 01:25:26;;;;;;;5.78;4.40;;;9.60;59.70;;;;;;5012682;28;20045;-83
2023/05/15 01:27:59;;;;;;;6.25;4.25;;;9.60;59.50;;;;;;5000535;28;20045;-78
2023/05/15 01:30:32;;;;;;;6.50;4.50;;;9.60;60.80;;;;;;5012598;28;20042;-79
2023/05/15 01:33:22;;;;;;;6.57;4.65;;;9.50;66.10;;;;;;5011890;28;20045;-83
2023/05/15 01:36:10;;;;;;;7.22;5.03;;;9.40;85.30;;;;;;5004190;28;20046;-77
2023/05/15 01:38:51;;;;;;;8.02;5.15;;;9.50;96.30;;;;;;5008219;28;20034;-78
2023/05/15 01:41:37;;;;;;;7.18;4.93;;;9.50;77.40;;;;;;5006306;28;20054;-78
2023/05/15 01:44:13;;;;;;;6.40;4.57;;;9.50;53.70;;;;;;5011100;28;20363;-79
2023/05/15 01:46:44;;;;;;;7.57;4.93;;;9.40;51.40;;;;;;5011686;28;20049;-78
2023/05/15 01:49:14;;;;;;;8.18;4.80;;;9.40;55.20;;;;;;5009874;28;20042;-78
2023/05/15 01:51:43;;;;;;;8.07;4.88;;;9.30;69.80;;;;;;5011893;28;20036;-78
2023/05/15 01:54:10;;;;;;;5.35;4.25;;;9.30;85.80;;;;;;5010746;28;20336;-78
2023/05/15 01:56:37;;;;;;;6.93;5.10;;;9.20;99.90;;;;;;5023704;28;20361;-78
2023/05/15 01:59:04;;;;;;;6.97;4.93;;;9.20;99.90;;;;;;5004390;28;20049;-78
2023/05/15 02:01:32;;;;;;;7.47;5.15;;;9.10;99.90;;;;;;5011898;28;20025;-79
2023/05/15 02:04:00;;;;;;;6.38;5.13;;;9.00;99.90;;;;;;5010814;28;20065;-83
2023/05/15 02:06:28;;;;;;;11.38;5.07;;;9.10;99.90;;;;;;5011866;28;20037;-78
2023/05/15 02:08:57;;;;;;;7.68;5.07;;;9.10;99.90;;;;;;5027122;28;20042;-78
2023/05/15 02:11:23;;;;;;;6.78;5.03;;;9.10;99.90;;;;;;5027174;28;20042;-78
2023/05/15 02:13:50;;;;;;;8.57;5.75;;;9.10;99.90;;;;;;5011688;28;20041;-78
2023/05/15 02:16:16;;;;;;;6.30;5.13;;;9.10;99.90;;;;;;5012604;28;20039;-78
2023/05/15 02:18:42;;;;;;;6.43;4.82;;;9.10;99.90;;;;;;5011988;28;20447;-78
2023/05/15 02:21:09;;;;;;;7.43;5.93;;;9.10;99.90;;;;;;5010232;28;20034;-77
2023/05/15 02:23:35;;;;;;;7.18;4.72;;;9.10;99.90;;;;;;5011598;28;20030;-78
2023/05/15 02:26:30;;;;;;;5.78;5.18;;;9.10;96.90;;;;;;5012680;28;20029;-79
2023/05/15 02:29:33;;;;;;;5.35;4.22;;;8.90;93.40;;;;;;5022483;28;20029;-78
2023/05/15 02:32:10;;;;;;;7.38;5.95;;;8.80;99.90;;;;;;5010006;28;20033;-84
2023/05/15 02:34:55;;;;;;;6.57;4.72;;;8.80;99.90;;;;;;5010863;28;20053;-78
2023/05/15 02:37:27;;;;;;;7.07;4.80;;;8.60;99.90;;;;;;5011448;28;20041;-80
2023/05/15 02:39:56;;;;;;;9.48;5.15;;;8.70;99.90;;;;;;5012122;28;20455;-80
2023/05/15 02:42:23;;;;;;;7.90;5.55;;;8.70;99.90;;;;;;5011447;28;20057;-80
2023/05/15 02:44:52;;;;;;;9.18;4.95;;;8.70;99.90;;;;;;5011462;28;20037;-80
2023/05/15 02:47:20;;;;;;;9.60;5.47;;;8.70;99.90;;;;;;4993014;28;20058;-80
2023/05/15 02:49:46;;;;;;;6.53;5.10;;;8.70;99.90;;;;;;5011833;28;20030;-80
2023/05/15 02:52:13;;;;;;;6.25;5.15;;;8.80;99.90;;;;;;5006416;28;20068;-80
2023/05/15 02:54:40;;;;;;;6.10;4.57;;;8.80;97.80;;;;;;5010969;28;20033;-80
2023/05/15 02:57:07;;;;;;;7.63;5.40;;;8.80;92.50;;;;;;5011229;28;20037;-81
2023/05/15 02:59:34;;;;;;;10.38;6.32;;;8.70;94.60;;;;;;5027145;28;20042;-81
2023/05/15 03:02:02;;;;;;;6.20;4.88;;;8.70;97.10;;;;;;5012143;28;20037;-85
2023/05/15 03:04:28;;;;;;;6.50;5.13;;;8.70;99.90;;;;;;5008214;28;20254;-80
2023/05/15 03:06:54;;;;;;;6.70;4.70;;;8.60;99.90;;;;;;5014489;28;20044;-80
2023/05/15 03:09:20;;;;;;;6.18;5.10;;;8.60;99.90;;;;;;5013116;28;20494;-80
2023/05/15 03:11:47;;;;;;;7.55;5.90;;;8.60;99.90;;;;;;5015151;28;20363;-81
2023/05/15 03:14:13;;;;;;;7.43;6.05;;;8.60;99.90;;;;;;5013178;28;20026;-80
2023/05/15 03:16:39;;;;;;;6.57;5.05;;;8.40;99.90;;;;;;5030257;28;20049;-80
2023/05/15 03:19:05;;;;;;;18.73;5.50;;;8.40;99.90;;;;;;5014837;28;20030;-79
2023/05/15 03:21:33;;;;;;;8.63;6.47;;;8.40;99.90;;;;;;5013895;28;20034;-80
2023/05/15 03:24:00;;;;;;;7.22;5.55;;;8.50;99.90;;;;;;5013859;28;20034;-85
2023/05/15 03:26:26;;;;;;;7.50;5.22;;;8.40;99.90;;;;;;5015405;28;20026;-78
2023/05/15 03:28:54;;;;;;;7.68;5.90;;;8.50;99.90;;;;;;5015512;28;20053;-78
2023/05/15 03:31:20;;;;;;;6.68;4.95;;;8.40;99.90;;;;;;5014498;28;20062;-78
2023/05/15 03:33:48;;;;;;;8.82;5.28;;;8.30;99.90;;;;;;5015025;28;20056;-74
2023/05/15 03:36:15;;;;;;;21.48;6.15;;;8.20;99.90;;;;;;5015092;28;20355;-78
2023/05/15 03:38:43;;;;;;;7.35;5.68;;;8.20;99.90;;;;;;5015689;28;20030;-77
2023/05/15 03:41:09;;;;;;;7.68;5.80;;;8.20;99.90;;;;;;5014705;28;20383;-79
2023/05/15 03:43:35;;;;;;;8.32;6.65;;;8.20;99.90;;;;;;5015036;28;20030;-76
2023/05/15 03:46:02;;;;;;;12.25;7.35;;;8.20;99.90;;;;;;5014661;28;20042;-85
2023/05/15 03:48:28;;;;;;;7.50;6.15;;;8.10;99.90;;;;;;5001261;28;20364;-78
2023/05/15 03:50:55;;;;;;;8.48;5.55;;;8.00;99.90;;;;;;5010357;28;20042;-78
2023/05/15 03:53:22;;;;;;;10.65;6.53;;;8.00;99.90;;;;;;5026829;28;20034;-78
2023/05/15 03:55:48;;;;;;;9.35;6.38;;;8.10;99.90;;;;;;5015157;28;20025;-78
2023/05/15 03:58:14;;;;;;;7.93;5.97;;;8.10;99.90;;;;;;5013966;28;20060;-78
2023/05/15 04:00:40;;;;;;;8.48;6.28;;;8.10;99.90;;;;;;5015131;28;20336;-78
2023/05/15 04:03:06;;;;;;;7.85;5.88;;;8.20;99.90;;;;;;5014291;28;20633;-85
2023/05/15 04:05:33;;;;;;;7.68;5.38;;;8.20;99.90;;;;;;5013398;28;20040;-78
2023/05/15 04:07:59;;;;;;;18.40;9.85;;;8.30;99.90;;;;;;5012383;28;20033;-74
2023/05/15 04:10:25;;;;;;;32.53;17.20;;;8.40;99.90;;;;;;4995505;28;20045;-78
2023/05/15 04:12:51;;;;;;;9.20;6.25;;;8.40;99.90;;;;;;4995330;28;20029;-75
2023/05/15 04:15:22;;;;;;;6.93;5.60;;;8.40;72.80;;;;;;4999201;28;20033;-74
2023/05/15 04:17:51;;;;;;;8.77;5.55;;;8.30;52.70;;;;;;5015122;28;20033;-78
2023/05/15 04:20:23;;;;;;;7.03;4.85;;;8.20;53.30;;;;;;5013952;28;20061;-78
2023/05/15 04:22:50;;;;;;;6.90;5.40;;;8.20;59.70;;;;;;5014802;28;20101;-78
2023/05/15 04:25:16;;;;;;;7.03;5.20;;;8.30;73.80;;;;;;5013910;28;20458;-78
2023/05/15 04:27:43;;;;;;;5.85;4.32;;;8.30;79.60;;;;;;5014185;28;20033;-75
2023/05/15 04:30:11;;;;;;;5.97;4.80;;;8.20;76.20;;;;;;5013717;28;20033;-76
2023/05/15 04:32:38;;;;;;;7.88;6.03;;;8.30;66.30;;;;;;5014475;28;20034;-75
2023/05/15 04:35:08;;;;;;;8.35;5.60;;;8.30;61.70;;;;;;5013355;28;20044;-82
2023/05/15 04:37:39;;;;;;;7.77;5.60;;;8.40;64.30;;;;;;5014205;28;20037;-75
2023/05/15 04:40:06;;;;;;;7.28;5.20;;;8.50;44.20;;;;;;5013708;28;20034;-82
2023/05/15 04:42:33;;;;;;;6.07;5.18;;;8.50;19.70;;;;;;5014094;28;20033;-76
2023/05/15 04:45:01;;;;;;;9.98;5.50;;;8.60;13.20;;;;;;5013600;28;20033;-76
2023/05/15 04:47:27;;;;;;;6.93;5.45;;;8.80;1.00;;;;;;5013575;28;20022;-76
2023/05/15 04:49:53;;;;;;;8.15;4.97;;;8.80;1.00;;;;;;5013227;28;20034;-75
2023/05/15 04:52:19;;;;;;;6.80;4.78;;;8.90;1.00;;;;;;5028714;28;20025;-76
2023/05/15 04:54:48;;;;;;;8.77;4.85;;;9.00;1.00;;;;;;5013529;28;20022;-75
2023/05/15 04:57:14;;;;;;;6.95;5.03;;;9.30;1.00;;;;;;5013223;28;20403;-76
2023/05/15 04:59:40;;;;;;;7.13;4.00;;;9.50;1.00;;;;;;5013842;28;20021;-76
2023/05/15 05:02:08;;;;;;;8.38;5.57;;;9.50;1.00;;;;;;5013102;28;20033;-89
2023/05/15 05:04:34;;;;;;;8.98;8.07;;;9.50;1.00;;;;;;5013207;28;20026;-76
2023/05/15 05:07:03;;;;;;;7.18;6.32;;;9.90;1.00;;;;;;5013374;28;20021;-77
2023/05/15 05:09:29;;;;;;;6.95;4.82;;;10.80;1.00;;;;;;5012836;28;20029;-76
2023/05/15 05:11:57;;;;;;;4.70;3.92;;;11.80;99.90;;;;;;5013353;28;20033;-76
2023/05/15 05:14:23;;;;;;;5.22;3.95;;;12.90;99.90;;;;;;5011930;28;20034;-76
2023/05/15 05:16:49;;;;;;;4.75;3.55;;;13.40;99.90;;;;;;5012933;28;20037;-77
2023/05/15 05:19:15;;;;;;;5.28;3.53;;;13.30;99.90;;;;;;5013001;28;20037;-77
2023/05/15 05:21:41;;;;;;;4.80;3.60;;;13.80;99.90;;;;;;5013355;28;20030;-77
2023/05/15 05:24:08;;;;;;;6.10;3.58;;;14.50;99.90;;;;;;5011440;28;20026;-77
2023/05/15 05:26:34;;;;;;;4.63;3.30;;;15.20;99.90;;;;;;5012979;28;20025;-77
2023/05/15 05:29:00;;;;;;;4.63;3.60;;;15.70;99.90;;;;;;5013355;28;20021;-77
2023/05/15 05:31:26;;;;;;;4.85;2.90;;;15.80;99.90;;;;;;5012880;28;20034;-77
2023/05/15 05:33:52;;;;;;;3.97;3.22;;;15.70;99.90;;;;;;5012090;28;20052;-77
2023/05/15 05:36:18;;;;;;;6.10;3.17;;;16.10;99.90;;;;;;5012320;28;20049;-76
2023/05/15 05:38:44;;;;;;;5.00;3.17;;;15.90;99.90;;;;;;5012431;28;20030;-76
2023/05/15 05:41:10;;;;;;;3.60;2.80;;;15.60;99.90;;;;;;5011566;28;20026;-76
2023/05/15 05:43:37;;;;;;;5.03;3.17;;;15.40;99.90;;;;;;5011469;28;20026;-77
2023/05/15 05:46:03;;;;;;;3.60;3.10;;;16.00;99.90;;;;;;5011953;28;20037;-76
2023/05/15 05:48:29;;;;;;;4.85;2.92;;;16.60;82.10;;;;;;5010394;28;20041;-77
2023/05/15 05:50:56;;;;;;;3.25;2.47;;;16.60;82.60;;;;;;5012546;28;20034;-77
2023/05/15 05:53:22;;;;;;;3.47;2.33;;;16.90;93.90;;;;;;5011074;28;20026;-77
2023/05/15 05:55:49;;;;;;;4.25;2.97;;;17.90;22.20;;;;;;5009312;28;20030;-78
2023/05/15 05:58:16;;;;;;;5.40;3.65;;;17.60;27.80;;;;;;5009913;28;20045;-77
2023/05/15 06:00:42;;;;;;;4.75;3.38;;;17.10;36.70;;;;;;5007157;28;20037;-75
2023/05/15 06:03:08;;;;;;;6.20;3.42;;;16.50;64.50;;;;;;5010488;28;20073;-76
2023/05/15 06:05:34;;;;;;;3.08;2.53;;;15.50;99.90;;;;;;5007835;28;20037;-76
2023/05/15 06:08:03;;;;;;;5.10;3.08;;;15.10;99.90;;;;;;5001789;28;20390;-77
2023/05/15 06:10:30;;;;;;;7.05;2.88;;;16.00;99.90;;;;;;5005500;28;20050;-78
2023/05/15 06:12:56;;;;;;;3.42;2.83;;;17.90;72.70;;;;;;5012342;28;20030;-75
2023/05/15 06:15:22;;;;;;;4.53;3.65;;;18.50;1.00;;;;;;5010318;28;20042;-76
2023/05/15 06:17:48;;;;;;;3.70;2.60;;;19.40;1.00;;;;;;5011606;28;20042;-76
2023/05/15 06:20:15;;;;;;;3.17;2.63;;;20.60;1.00;;;;;;5009340;28;20033;-76
2023/05/15 06:22:41;;;;;;;5.05;3.20;;;20.80;1.00;;;;;;5011799;28;20030;-76
2023/05/15 06:25:12;;;;;;;5.72;3.15;;;21.20;1.00;;;;;;5011288;28;20037;-76
2023/05/15 06:27:40;;;;;;;4.60;3.05;;;22.00;1.00;;;;;;5011906;28;20041;-76
2023/05/15 06:30:07;;;;;;;3.85;2.60;;;21.30;1.00;;;;;;5008236;28;20042;-80
2023/05/15 06:32:34;;;;;;;3.45;2.70;;;21.40;1.00;;;;;;5004879;28;20352;-76
2023/05/15 06:35:00;;;;;;;3.95;2.97;;;20.80;1.00;;;;;;5013233;28;20056;-80
2023/05/15 06:37:27;;;;;;;4.03;2.30;;;21.30;1.00;;;;;;5014660;28;20037;-83
2023/05/15 06:39:55;;;;;;;4.28;3.08;;;21.80;1.00;;;;;;5015532;28;20059;-82
2023/05/15 06:42:22;;;;;;;6.07;3.20;;;18.80;1.00;;;;;;5009687;28;20014;-83
2023/05/15 06:44:48;;;;;;;4.57;2.90;;;17.50;1.00;;;;;;5014705;28;20034;-83
2023/05/15 06:47:15;;;;;;;4.57;3.55;;;16.80;41.30;;;;;;5014796;28;20022;-83
2023/05/15 06:49:41;;;;;;;4.95;3.17;;;16.80;50.40;;;;;;5015636;28;20463;-83
2023/05/15 06:52:07;;;;;;;4.82;2.83;;;17.30;24.80;;;;;;5013297;28;20041;-82
2023/05/15 06:54:33;;;;;;;3.38;2.60;;;18.30;3.60;;;;;;5019304;28;20026;-82
2023/05/15 06:56:59;;;;;;;4.63;3.13;;;18.50;1.00;;;;;;5016354;28;20030;-83
2023/05/15 06:59:26;;;;;;;4.05;2.65;;;18.70;1.00;;;;;;5015072;28;20037;-83
2023/05/15 07:01:52;;;;;;;4.85;2.97;;;18.40;1.00;;;;;;5014036;28;20044;-82
2023/05/15 07:04:18;;;;;;;3.85;3.05;;;17.60;5.80;;;;;;5020783;28;20033;-82
2023/05/15 07:06:44;;;;;;;4.88;2.92;;;17.20;56.80;;;;;;5018619;28;20060;-85
2023/05/15 07:09:12;;;;;;;4.32;3.30;;;18.60;1.40;;;;;;5018061;28;20049;-85
2023/05/15 07:11:39;;;;;;;3.75;3.13;;;18.60;1.00;;;;;;5015279;28;20034;-85
2023/05/15 07:14:05;;;;;;;4.03;2.80;;;18.70;1.00;;;;;;5015616;28;20379;-86
2023/05/15 07:16:31;;;;;;;4.45;2.42;;;19.10;1.00;;;;;;5014874;28;20026;-83
2023/05/15 07:18:59;;;;;;;4.22;2.35;;;18.30;1.00;;;;;;5015458;28;20033;-86
2023/05/15 07:21:25;;;;;;;3.55;2.35;;;17.20;1.00;;;;;;5024456;28;20041;-83
2023/05/15 07:23:51;;;;;;;5.18;3.20;;;16.90;15.80;;;;;;5015118;28;20462;-82
2023/05/15 07:26:17;;;;;;;4.82;2.90;;;16.80;11.10;;;;;;5014255;28;20029;-82
2023/05/15 07:28:43;;;;;;;5.68;3.25;;;16.70;19.00;;;;;;5014993;28;20045;-82
2023/05/15 07:31:10;;;;;;;4.95;3.08;;;16.80;27.00;;;;;;5013280;28;20042;-82
2023/05/15 07:33:36;;;;;;;3.55;3.15;;;16.60;31.10;;;;;;5013563;28;20054;-83
2023/05/15 07:36:02;;;;;;;3.83;3.33;;;17.00;21.10;;;;;;5014722;28;20041;-83
2023/05/15 07:38:29;;;;;;;5.15;3.75;;;17.20;13.20;;;;;;5014125;28;20571;-83
2023/05/15 07:40:55;;;;;;;3.33;2.72;;;17.20;21.60;;;;;;5013734;28;20033;-83
2023/05/15 07:43:22;;;;;;;4.57;2.30;;;16.90;16.60;;;;;;5014268;28;20030;-85
2023/05/15 07:45:48;;;;;;;3.70;2.80;;;17.10;1.00;;;;;;5014763;28;20030;-86
2023/05/15 07:48:19;;;;;;;6.32;4.80;;;17.30;1.00;;;;;;5016126;28;20037;-84
2023/05/15 07:50:46;;;;;;;5.55;4.57;;;17.70;19.80;;;;;;5013953;28;20026;-85
2023/05/15 07:53:18;;;;;;;7.30;4.90;;;18.50;9.90;;;;;;5013854;28;20045;-84
2023/05/15 07:55:45;;;;;;;8.25;4.20;;;18.90;1.00;;;;;;5014430;28;20478;-85
2023/05/15 07:58:11;;;;;;;5.15;3.85;;;19.10;1.00;;;;;;5014083;28;20899;-84
2023/05/15 08:00:37;;;;;;;4.68;3.88;;;19.50;1.00;;;;;;5015422;28;20042;-84
2023/05/15 08:03:03;;;;;;;5.20;4.18;;;19.50;1.00;;;;;;5013865;28;20447;-85
2023/05/15 08:05:30;;;;;;;6.68;4.07;;;19.00;1.00;;;;;;5013831;28;20324;-85
2023/05/15 08:07:56;;;;;;;6.95;4.28;;;19.10;1.00;;;;;;5014940;28;20025;-83
2023/05/15 08:10:22;;;;;;;4.80;4.28;;;18.20;1.00;;;;;;5013767;28;20037;-83
2023/05/15 08:12:49;;;;;;;9.82;4.90;;;18.10;2.10;;;;;;5012785;28;20040;-84
2023/05/15 08:15:15;;;;;;;6.15;4.07;;;18.40;1.00;;;;;;5013183;28;20033;-82
2023/05/15 08:17:42;;;;;;;4.80;4.20;;;19.10;1.00;;;;;;5010030;28;20042;-83
2023/05/15 08:20:09;;;;;;;6.55;4.60;;;18.90;1.00;;;;;;5013632;28;20022;-83
2023/05/15 08:22:35;;;;;;;9.63;4.85;;;18.50;1.00;;;;;;5011831;28;20026;-84
2023/05/15 08:25:02;;;;;;;7.85;4.85;;;19.30;1.00;;;;;;5014304;28;20030;-85
2023/05/15 08:27:28;;;;;;;7.15;5.75;;;20.40;1.00;;;;;;5013185;28;20038;-84
2023/05/15 08:29:55;;;;;;;8.55;6.13;;;19.80;1.00;;;;;;5013977;28;20455;-84
2023/05/15 08:32:21;;;;;;;8.18;5.57;;;19.00;1.00;;;;;;5008049;28;20034;-84
2023/05/15 08:34:47;;;;;;;6.80;5.80;;;18.40;1.00;;;;;;5013464;28;20057;-85
2023/05/15 08:37:13;;;;;;;8.93;5.55;;;18.20;1.00;;;;;;5012676;28;20495;-83
2023/05/15 08:39:39;;;;;;;7.25;5.82;;;18.00;1.00;;;;;;5013431;28;20045;-84
2023/05/15 08:42:27;;;;;;;12.02;7.10;;;17.90;18.00;;;;;;5012719;28;20382;-83
2023/05/15 08:44:54;;;;;;;9.73;6.60;;;17.80;1.00;;;;;;5011625;28;20033;-83
2023/05/15 08:47:21;;;;;;;11.15;7.93;;;17.40;29.30;;;;;;5013142;28;20018;-83
2023/05/15 08:49:53;;;;;;;11.23;8.00;;;17.20;47.40;;;;;;5026202;28;20049;-81
2023/05/15 08:52:19;;;;;;;9.88;7.75;;;17.10;55.30;;;;;;5011461;28;20386;-82
2023/05/15 08:54:46;;;;;;;12.30;8.73;;;17.10;65.00;;;;;;5013728;28;20038;-84
2023/05/15 08:57:14;;;;;;;12.02;9.32;;;17.40;50.60;;;;;;5015894;28;20017;-83
2023/05/15 08:59:40;;;;;;;11.05;8.05;;;17.90;12.80;;;;;;5013181;28;20026;-83
2023/05/15 09:02:06;;;;;;;10.65;7.85;;;18.40;4.60;;;;;;5011374;28;20037;-85
2023/05/15 09:04:32;;;;;;;8.80;7.60;;;18.90;1.00;;;;;;5012355;28;20034;-85
2023/05/15 09:07:02;;;;;;;10.05;8.23;;;19.30;1.00;;;;;;5012213;28;20383;-83
2023/05/15 09:09:31;;;;;;;11.88;8.48;;;19.70;1.00;;;;;;5012119;28;20470;-85
2023/05/15 09:11:59;;;;;;;10.70;8.75;;;19.80;1.00;;;;;;5010828;28;20037;-79
2023/05/15 09:14:25;;;;;;;15.57;9.98;;;19.40;1.00;;;;;;5011309;28;20037;-79
2023/05/15 09:16:52;;;;;;;13.90;10.65;;;18.40;1.00;;;;;;5026645;28;20036;-82
2023/05/15 09:19:20;;;;;;;15.07;10.35;;;17.90;1.00;;;;;;5013485;28;20049;-83
2023/05/15 09:21:46;;;;;;;14.60;9.82;;;18.80;1.00;;;;;;5011364;28;20025;-83
2023/05/15 09:24:19;;;;;;;11.00;9.05;;;18.90;1.00;;;;;;5012586;28;20069;-82
2023/05/15 09:26:58;;;;;;;12.75;8.43;;;18.90;1.00;;;;;;5011017;28;20456;-83
2023/05/15 09:29:27;;;;;;;16.60;11.82;;;19.40;1.00;;;;;;5012089;28;20049;-82
2023/05/15 09:31:54;;;;;;;16.33;12.93;;;19.70;1.00;;;;;;5010722;28;20029;-84
2023/05/15 09:34:31;;;;;;;17.70;13.13;;;20.40;1.00;;;;;;5011855;28;20037;-82
2023/05/15 09:36:59;;;;;;;20.55;13.50;;;20.50;1.00;;;;;;5012637;28;20049;-84
2023/05/15 09:39:25;;;;;;;19.50;14.55;;;20.50;1.00;;;;;;5011865;28;20025;-86
2023/05/15 09:41:52;;;;;;;17.40;13.77;;;20.30;1.00;;;;;;5010746;28;20033;-84
2023/05/15 09:44:28;;;;;;;21.55;15.45;;;19.90;1.00;;;;;;5011269;28;20056;-83
2023/05/15 09:46:55;;;;;;;22.73;16.30;;;19.40;1.00;;;;;;5009763;28;20439;-83
2023/05/15 09:49:21;;;;;;;21.10;16.15;;;19.50;1.00;;;;;;5012000;28;20037;-81
2023/05/15 09:51:49;;;;;;;23.58;15.95;;;20.10;1.00;;;;;;5010462;28;20042;-83
2023/05/15 09:54:17;;;;;;;17.30;14.10;;;20.40;1.00;;;;;;5011815;28;20021;-80
2023/05/15 09:56:45;;;;;;;19.77;14.63;;;21.40;1.00;;;;;;5011828;28;20036;-83
2023/05/15 09:59:17;;;;;;;22.98;17.38;;;20.90;1.00;;;;;;5012044;28;20034;-82
2023/05/15 10:01:45;;;;;;;21.30;15.10;;;20.00;1.00;;;;;;5008670;28;20035;-82
2023/05/15 10:04:12;;;;;;;16.67;12.75;;;19.40;1.00;;;;;;5011581;28;20037;-83
2023/05/15 10:06:40;;;;;;;21.60;12.10;;;19.90;1.00;;;;;;5011480;28;20575;-80
2023/05/15 10:09:07;;;;;;;18.33;13.15;;;20.00;1.00;;;;;;5011390;28;20036;-82
2023/05/15 10:11:36;;;;;;;12.63;10.23;;;20.40;1.00;;;;;;5010194;28;20056;-81
2023/05/15 10:14:05;;;;;;;20.27;11.73;;;20.60;1.00;;;;;;5011709;28;20026;-81
2023/05/15 10:16:34;;;;;;;15.30;10.95;;;20.70;1.00;;;;;;5014425;28;20045;-86
2023/05/15 10:19:06;;;;;;;17.45;12.73;;;21.00;1.00;;;;;;5021566;28;20030;-82
2023/05/15 10:21:35;;;;;;;14.10;10.02;;;20.70;1.00;;;;;;5010655;28;20030;-81
2023/05/15 10:24:03;;;;;;;13.93;10.77;;;20.00;1.00;;;;;;5011999;28;20033;-81
2023/05/15 10:26:37;;;;;;;15.40;11.15;;;19.70;1.00;;;;;;5010994;28;20037;-80
2023/05/15 10:29:16;;;;;;;15.10;9.73;;;19.80;1.00;;;;;;5009209;28;20030;-80
2023/05/15 10:31:42;;;;;;;11.52;9.15;;;20.40;1.00;;;;;;5024786;28;20041;-81
2023/05/15 10:34:09;;;;;;;10.40;7.63;;;20.40;1.00;;;;;;5026488;28;20050;-79
2023/05/15 10:36:38;;;;;;;14.88;9.68;;;20.60;1.00;;;;;;5011177;28;20038;-80
2023/05/15 10:39:06;;;;;;;12.20;8.38;;;20.60;1.00;;;;;;5011583;28;20041;-82
2023/05/15 10:41:35;;;;;;;18.10;9.95;;;20.70;1.00;;;;;;5009644;28;20038;-80
2023/05/15 10:44:01;;;;;;;21.80;11.57;;;20.70;1.00;;;;;;5011590;28;20438;-81
2023/05/15 10:46:29;;;;;;;10.43;8.27;;;20.70;1.00;;;;;;5011148;28;20041;-80
2023/05/15 10:48:56;;;;;;;13.20;9.85;;;21.00;1.00;;;;;;5013084;28;20045;-82
2023/05/15 10:51:27;;;;;;;10.68;6.90;;;21.10;1.00;;;;;;5009478;28;20049;-83
2023/05/15 10:53:55;;;;;;;8.48;6.22;;;20.40;99.90;;;;;;5011378;28;20026;-80
2023/05/15 10:56:32;;;;;;;14.55;9.68;;;20.30;1.00;;;;;;5012371;28;20045;-81
2023/05/15 10:59:06;;;;;;;16.60;9.23;;;20.70;1.00;;;;;;5011315;28;20068;-83
2023/05/15 11:01:35;;;;;;;12.05;7.70;;;21.30;1.00;;;;;;5009690;28;20045;-81
2023/05/15 11:04:08;;;;;;;13.85;7.28;;;21.10;99.90;;;;;;5011684;28;20045;-79
2023/05/15 11:06:36;;;;;;;10.13;6.80;;;20.40;1.00;;;;;;5010939;28;20030;-82
2023/05/15 11:09:21;;;;;;;10.13;6.68;;;20.10;1.00;;;;;;5011327;28;20030;-79
2023/05/15 11:11:59;;;;;;;7.85;6.43;;;19.60;1.00;;;;;;5007653;28;20065;-81
2023/05/15 11:14:26;;;;;;;12.27;7.00;;;19.80;1.00;;;;;;5009778;28;20030;-80
2023/05/15 11:16:52;;;;;;;11.05;8.20;;;20.00;1.00;;;;;;5011245;28;20028;-81
2023/05/15 11:19:27;;;;;;;9.88;6.70;;;20.50;1.00;;;;;;5011565;28;20026;-81
2023/05/15 11:22:17;;;;;;;10.35;6.63;;;20.80;1.00;;;;;;5011482;28;20363;-80
2023/05/15 11:25:05;;;;;;;8.60;5.97;;;21.10;99.90;;;;;;5012673;28;20026;-81
2023/05/15 11:27:42;;;;;;;8.50;5.85;;;20.50;1.00;;;;;;5014203;28;20456;-81
2023/05/15 11:30:12;;;;;;;7.47;5.38;;;20.80;99.90;;;;;;5011066;28;20057;-81
2023/05/15 11:32:50;;;;;;;9.35;4.72;;;21.10;99.90;;;;;;5007886;28;20041;-79
2023/05/15 11:35:21;;;;;;;3.90;2.92;;;20.50;99.90;;;;;;5015317;28;20050;-81
2023/05/15 11:37:50;;;;;;;8.52;4.63;;;20.90;99.90;;;;;;5014324;28;20029;-81
2023/05/15 11:40:20;;;;;;;8.27;4.38;;;21.20;99.90;;;;;;5014690;28;20025;-81
2023/05/15 11:43:07;;;;;;;10.18;6.43;;;21.40;99.90;;;;;;5007994;28;20033;-79
2023/05/15 11:45:39;;;;;;;9.45;6.43;;;21.40;99.90;;;;;;5011056;28;20057;-82
2023/05/15 11:48:07;;;;;;;9.32;6.75;;;21.20;99.90;;;;;;5014571;28;20489;-80
2023/05/15 11:50:34;;;;;;;8.75;7.07;;;20.90;99.90;;;;;;5021338;28;20026;-79
2023/05/15 11:53:07;;;;;;;8.95;6.57;;;21.10;99.90;;;;;;5015980;28;20085;-80
2023/05/15 11:55:36;;;;;;;7.43;4.95;;;21.70;99.90;;;;;;5011334;28;20026;-80
2023/05/15 11:58:04;;;;;;;8.82;6.28;;;22.30;99.90;;;;;;5014995;28;20505;-81
2023/05/15 12:00:31;;;;;;;13.07;8.70;;;22.00;99.90;;;;;;5017838;28;20030;-79
2023/05/15 12:02:57;;;;;;;10.02;7.15;;;21.40;99.90;;;;;;5013312;28;20025;-80
2023/05/15 12:05:23;;;;;;;9.48;5.97;;;21.40;99.90;;;;;;5013646;28;20375;-82
2023/05/15 12:07:49;;;;;;;9.75;5.82;;;21.40;99.90;;;;;;5013982;28;20034;-81
2023/05/15 12:10:16;;;;;;;9.02;5.22;;;21.40;99.90;;;;;;5014273;28;20030;-80
2023/05/15 12:12:43;;;;;;;8.82;5.22;;;21.80;99.90;;;;;;5012136;28;20038;-85
2023/05/15 12:15:14;;;;;;;9.18;4.38;;;22.10;99.90;;;;;;5013866;28;20057;-82
2023/05/15 12:17:42;;;;;;;6.93;4.05;;;22.40;99.90;;;;;;5013620;28;20030;-79
2023/05/15 12:20:17;;;;;;;9.50;5.60;;;22.00;99.90;;;;;;5013932;28;20026;-78
2023/05/15 12:22:44;;;;;;;8.20;5.03;;;21.70;99.90;;;;;;5012579;28;20038;-79
2023/05/15 12:25:11;;;;;;;10.00;4.68;;;21.20;99.90;;;;;;5015118;28;20026;-82
2023/05/15 12:27:39;;;;;;;6.32;4.93;;;21.60;99.90;;;;;;5017945;28;20038;-78
2023/05/15 12:30:06;;;;;;;9.88;6.70;;;21.60;99.90;;;;;;5025335;28;20038;-79
2023/05/15 12:32:35;;;;;;;10.95;6.50;;;21.30;99.90;;;;;;5022834;28;20340;-80
2023/05/15 12:35:02;;;;;;;9.55;7.55;;;21.00;99.90;;;;;;5021093;28;20046;-78
2023/05/15 12:37:33;;;;;;;10.35;7.35;;;20.90;99.90;;;;;;5014689;28;20034;-84
2023/05/15 12:40:01;;;;;;;10.52;6.55;;;20.40;99.90;;;;;;5013489;28;20030;-81
2023/05/15 12:42:27;;;;;;;9.32;6.63;;;20.00;99.90;;;;;;5010506;28;20045;-79
2023/05/15 12:44:55;;;;;;;11.52;7.13;;;20.00;1.00;;;;;;5013512;28;20030;-78
2023/05/15 12:47:23;;;;;;;17.73;9.18;;;19.90;1.00;;;;;;5020528;28;20026;-79
2023/05/15 12:49:50;;;;;;;11.88;6.78;;;19.90;1.00;;;;;;5009775;28;20044;-83
2023/05/15 12:52:16;;;;;;;7.70;6.25;;;19.80;1.00;;;;;;5012156;28;20049;-81
2023/05/15 12:54:43;;;;;;;8.65;6.47;;;19.60;1.00;;;;;;5012635;28;20033;-79
2023/05/15 12:57:10;;;;;;;8.80;6.60;;;19.80;1.00;;;;;;5013248;28;20026;-82